sensor_id;sensor_type;location;lat;lon;timestamp;temperature;humidity
12655;DHT22;6392;44.644;11.448;2022-11-13T00:01:52;9.90;99.90
12655;DHT22;6392;44.644;11.448;2022-11-13T00:04:19;9.80;99.90
12655;DHT22;6392;44.644;11.448;2022-11-13T00:06:47;9.70;99.90
12655;DHT22;6392;44.644;11.448;2022-11-13T00:09:15;9.80;99.90
12655;DHT22;6392;44.644;11.448;2022-11-13T00:11:42;9.90;99.90
12655;DHT22;6392;44.644;11.448;2022-11-13T00:14:09;10.00;99.90
12655;DHT22;6392;44.644;11.448;2022-11-13T00:16:36;10.00;99.90
12655;DHT22;6392;44.644;11.448;2022-11-13T00:19:03;10.00;99.90
12655;DHT22;6392;44.644;11.448;2022-11-13T00:21:30;10.00;99.90
12655;DHT22;6392;44.644;11.448;2022-11-13T00:23:59;10.10;99.90
12655;DHT22;6392;44.644;11.448;2022-11-13T00:26:27;10.10;99.90
12655;DHT22;6392;44.644;11.448;2022-11-13T00:28:56;10.10;99.90
12655;DHT22;6392;44.644;11.448;2022-11-13T00:31:24;10.10;99.90
12655;DHT22;6392;44.644;11.448;2022-11-13T00:33:51;10.10;99.90
12655;DHT22;6392;44.644;11.448;2022-11-13T00:36:20;10.10;99.90
12655;DHT22;6392;44.644;11.448;2022-11-13T00:38:47;10.10;99.90
12655;DHT22;6392;44.644;11.448;2022-11-13T00:41:16;10.20;99.90
12655;DHT22;6392;44.644;11.448;2022-11-13T00:43:43;10.20;99.90
12655;DHT22;6392;44.644;11.448;2022-11-13T00:46:10;10.20;99.90
12655;DHT22;6392;44.644;11.448;2022-11-13T00:48:37;10.30;99.90
12655;DHT22;6392;44.644;11.448;2022-11-13T00:51:04;10.40;99.90
12655;DHT22;6392;44.644;11.448;2022-11-13T00:53:32;10.30;99.90
12655;DHT22;6392;44.644;11.448;2022-11-13T00:55:59;10.30;99.90
12655;DHT22;6392;44.644;11.448;2022-11-13T00:58:27;10.30;99.90
12655;DHT22;6392;44.644;11.448;2022-11-13T01:00:54;10.20;99.90
12655;DHT22;6392;44.644;11.448;2022-11-13T01:03:21;10.20;99.90
12655;DHT22;6392;44.644;11.448;2022-11-13T01:05:49;10.20;99.90
12655;DHT22;6392;44.644;11.448;2022-11-13T01:08:16;10.30;99.90
12655;DHT22;6392;44.644;11.448;2022-11-13T01:10:45;10.30;99.90
12655;DHT22;6392;44.644;11.448;2022-11-13T01:13:12;10.30;99.90
12655;DHT22;6392;44.644;11.448;2022-11-13T01:15:42;10.30;99.90
12655;DHT22;6392;44.644;11.448;2022-11-13T01:18:09;10.40;99.90
12655;DHT22;6392;44.644;11.448;2022-11-13T01:20:37;10.30;99.90
12655;DHT22;6392;44.644;11.448;2022-11-13T01:23:04;10.40;99.90
12655;DHT22;6392;44.644;11.448;2022-11-13T01:25:31;10.40;99.90
12655;DHT22;6392;44.644;11.448;2022-11-13T01:27:58;10.40;99.90
12655;DHT22;6392;44.644;11.448;2022-11-13T01:30:25;10.30;99.90
12655;DHT22;6392;44.644;11.448;2022-11-13T01:32:54;10.40;99.90
12655;DHT22;6392;44.644;11.448;2022-11-13T01:35:21;10.30;99.90
12655;DHT22;6392;44.644;11.448;2022-11-13T01:37:48;10.40;99.90
12655;DHT22;6392;44.644;11.448;2022-11-13T01:40:15;10.40;99.90
12655;DHT22;6392;44.644;11.448;2022-11-13T01:42:42;10.40;99.90
12655;DHT22;6392;44.644;11.448;2022-11-13T01:48:15;10.40;99.90
12655;DHT22;6392;44.644;11.448;2022-11-13T01:50:42;10.30;99.90
12655;DHT22;6392;44.644;11.448;2022-11-13T01:53:09;10.30;99.90
12655;DHT22;6392;44.644;11.448;2022-11-13T01:55:36;10.20;99.90
12655;DHT22;6392;44.644;11.448;2022-11-13T01:58:05;10.20;99.90
12655;DHT22;6392;44.644;11.448;2022-11-13T02:00:33;10.20;99.90
12655;DHT22;6392;44.644;11.448;2022-11-13T02:03:01;10.20;99.90
12655;DHT22;6392;44.644;11.448;2022-11-13T02:05:29;10.20;99.90
12655;DHT22;6392;44.644;11.448;2022-11-13T02:07:56;10.20;99.90
12655;DHT22;6392;44.644;11.448;2022-11-13T02:10:24;10.20;99.90
12655;DHT22;6392;44.644;11.448;2022-11-13T02:12:51;10.20;99.90
12655;DHT22;6392;44.644;11.448;2022-11-13T02:15:20;10.10;99.90
12655;DHT22;6392;44.644;11.448;2022-11-13T02:17:51;10.10;99.90
12655;DHT22;6392;44.644;11.448;2022-11-13T02:20:26;10.10;99.90
12655;DHT22;6392;44.644;11.448;2022-11-13T02:23:01;10.10;99.90
12655;DHT22;6392;44.644;11.448;2022-11-13T02:25:33;10.00;99.90
12655;DHT22;6392;44.644;11.448;2022-11-13T02:28:01;10.00;99.90
12655;DHT22;6392;44.644;11.448;2022-11-13T02:30:30;10.00;99.90
12655;DHT22;6392;44.644;11.448;2022-11-13T02:32:57;10.00;99.90
12655;DHT22;6392;44.644;11.448;2022-11-13T02:35:26;9.90;99.90
12655;DHT22;6392;44.644;11.448;2022-11-13T02:37:57;10.00;99.90
12655;DHT22;6392;44.644;11.448;2022-11-13T02:40:24;9.90;99.90
12655;DHT22;6392;44.644;11.448;2022-11-13T02:42:53;9.90;99.90
12655;DHT22;6392;44.644;11.448;2022-11-13T02:45:20;9.90;99.90
12655;DHT22;6392;44.644;11.448;2022-11-13T02:47:47;9.80;99.90
12655;DHT22;6392;44.644;11.448;2022-11-13T02:50:16;9.80;99.90
12655;DHT22;6392;44.644;11.448;2022-11-13T02:52:43;9.70;99.90
12655;DHT22;6392;44.644;11.448;2022-11-13T02:55:10;9.70;99.90
12655;DHT22;6392;44.644;11.448;2022-11-13T02:57:37;9.70;99.90
12655;DHT22;6392;44.644;11.448;2022-11-13T03:00:07;9.70;99.90
12655;DHT22;6392;44.644;11.448;2022-11-13T03:02:35;9.70;99.90
12655;DHT22;6392;44.644;11.448;2022-11-13T03:05:02;9.60;99.90
12655;DHT22;6392;44.644;11.448;2022-11-13T03:07:29;9.60;99.90
12655;DHT22;6392;44.644;11.448;2022-11-13T03:09:57;9.60;99.90
12655;DHT22;6392;44.644;11.448;2022-11-13T03:12:24;9.60;99.90
12655;DHT22;6392;44.644;11.448;2022-11-13T03:14:51;9.50;99.90
12655;DHT22;6392;44.644;11.448;2022-11-13T03:17:19;9.50;99.90
12655;DHT22;6392;44.644;11.448;2022-11-13T03:19:47;9.50;99.90
12655;DHT22;6392;44.644;11.448;2022-11-13T03:22:14;9.40;99.90
12655;DHT22;6392;44.644;11.448;2022-11-13T03:24:41;9.40;99.90
12655;DHT22;6392;44.644;11.448;2022-11-13T03:27:08;9.30;99.90
12655;DHT22;6392;44.644;11.448;2022-11-13T03:29:35;9.30;99.90
12655;DHT22;6392;44.644;11.448;2022-11-13T03:32:02;9.30;99.90
12655;DHT22;6392;44.644;11.448;2022-11-13T03:34:31;9.20;99.90
12655;DHT22;6392;44.644;11.448;2022-11-13T03:36:58;9.30;99.90
12655;DHT22;6392;44.644;11.448;2022-11-13T03:39:25;9.30;99.90
12655;DHT22;6392;44.644;11.448;2022-11-13T03:41:52;9.30;99.90
12655;DHT22;6392;44.644;11.448;2022-11-13T03:44:19;9.30;99.90
12655;DHT22;6392;44.644;11.448;2022-11-13T03:46:46;9.20;99.90
12655;DHT22;6392;44.644;11.448;2022-11-13T03:49:13;9.20;99.90
12655;DHT22;6392;44.644;11.448;2022-11-13T03:51:42;9.20;99.90
12655;DHT22;6392;44.644;11.448;2022-11-13T03:54:09;9.20;99.90
12655;DHT22;6392;44.644;11.448;2022-11-13T03:56:36;9.20;99.90
12655;DHT22;6392;44.644;11.448;2022-11-13T03:59:03;9.20;99.90
12655;DHT22;6392;44.644;11.448;2022-11-13T04:01:30;9.20;99.90
12655;DHT22;6392;44.644;11.448;2022-11-13T04:03:57;9.20;99.90
12655;DHT22;6392;44.644;11.448;2022-11-13T04:06:24;9.10;99.90
12655;DHT22;6392;44.644;11.448;2022-11-13T04:08:53;9.10;99.90
12655;DHT22;6392;44.644;11.448;2022-11-13T04:11:20;9.10;99.90
12655;DHT22;6392;44.644;11.448;2022-11-13T04:13:47;9.10;99.90
12655;DHT22;6392;44.644;11.448;2022-11-13T04:16:14;9.10;99.90
12655;DHT22;6392;44.644;11.448;2022-11-13T04:18:41;9.10;99.90
12655;DHT22;6392;44.644;11.448;2022-11-13T04:21:08;9.10;99.90
12655;DHT22;6392;44.644;11.448;2022-11-13T04:23:35;9.10;99.90
12655;DHT22;6392;44.644;11.448;2022-11-13T04:26:04;9.10;99.90
12655;DHT22;6392;44.644;11.448;2022-11-13T04:28:31;9.10;99.90
12655;DHT22;6392;44.644;11.448;2022-11-13T04:30:58;9.10;99.90
12655;DHT22;6392;44.644;11.448;2022-11-13T04:33:25;9.00;99.90
12655;DHT22;6392;44.644;11.448;2022-11-13T04:35:52;9.00;99.90
12655;DHT22;6392;44.644;11.448;2022-11-13T04:38:19;9.00;99.90
12655;DHT22;6392;44.644;11.448;2022-11-13T04:40:48;9.00;99.90
12655;DHT22;6392;44.644;11.448;2022-11-13T04:43:17;9.00;99.90
12655;DHT22;6392;44.644;11.448;2022-11-13T04:45:43;9.00;99.90
12655;DHT22;6392;44.644;11.448;2022-11-13T04:48:10;9.00;99.90
12655;DHT22;6392;44.644;11.448;2022-11-13T04:50:37;8.90;99.90
12655;DHT22;6392;44.644;11.448;2022-11-13T04:53:05;8.90;99.90
12655;DHT22;6392;44.644;11.448;2022-11-13T04:55:32;8.80;99.90
12655;DHT22;6392;44.644;11.448;2022-11-13T04:57:59;8.80;99.90
12655;DHT22;6392;44.644;11.448;2022-11-13T05:00:27;8.80;99.90
12655;DHT22;6392;44.644;11.448;2022-11-13T05:02:55;8.70;99.90
12655;DHT22;6392;44.644;11.448;2022-11-13T05:05:22;8.70;99.90
12655;DHT22;6392;44.644;11.448;2022-11-13T05:07:49;8.60;99.90
12655;DHT22;6392;44.644;11.448;2022-11-13T05:10:16;8.60;99.90
12655;DHT22;6392;44.644;11.448;2022-11-13T05:12:44;8.60;99.90
12655;DHT22;6392;44.644;11.448;2022-11-13T05:15:11;8.60;99.90
12655;DHT22;6392;44.644;11.448;2022-11-13T05:17:40;8.50;99.90
12655;DHT22;6392;44.644;11.448;2022-11-13T05:20:08;8.50;99.90
12655;DHT22;6392;44.644;11.448;2022-11-13T05:22:35;8.40;99.90
12655;DHT22;6392;44.644;11.448;2022-11-13T05:25:02;8.40;99.90
12655;DHT22;6392;44.644;11.448;2022-11-13T05:27:29;8.40;99.90
12655;DHT22;6392;44.644;11.448;2022-11-13T05:29:57;8.40;99.90
12655;DHT22;6392;44.644;11.448;2022-11-13T05:32:24;8.40;99.90
12655;DHT22;6392;44.644;11.448;2022-11-13T05:34:52;8.30;99.90
12655;DHT22;6392;44.644;11.448;2022-11-13T05:37:19;8.30;99.90
12655;DHT22;6392;44.644;11.448;2022-11-13T05:39:46;8.30;99.90
12655;DHT22;6392;44.644;11.448;2022-11-13T05:42:13;8.20;99.90
12655;DHT22;6392;44.644;11.448;2022-11-13T05:44:41;8.20;99.90
12655;DHT22;6392;44.644;11.448;2022-11-13T05:47:08;8.20;99.90
12655;DHT22;6392;44.644;11.448;2022-11-13T05:49:35;8.20;99.90
12655;DHT22;6392;44.644;11.448;2022-11-13T05:52:03;8.20;99.90
12655;DHT22;6392;44.644;11.448;2022-11-13T05:54:30;8.20;99.90
12655;DHT22;6392;44.644;11.448;2022-11-13T05:56:57;8.20;99.90
12655;DHT22;6392;44.644;11.448;2022-11-13T05:59:24;8.20;99.90
12655;DHT22;6392;44.644;11.448;2022-11-13T06:01:51;8.10;99.90
12655;DHT22;6392;44.644;11.448;2022-11-13T06:04:19;8.10;99.90
12655;DHT22;6392;44.644;11.448;2022-11-13T06:06:46;8.10;99.90
12655;DHT22;6392;44.644;11.448;2022-11-13T06:09:15;8.20;99.90
12655;DHT22;6392;44.644;11.448;2022-11-13T06:11:42;8.20;99.90
12655;DHT22;6392;44.644;11.448;2022-11-13T06:14:10;8.20;99.90
12655;DHT22;6392;44.644;11.448;2022-11-13T06:16:38;8.20;99.90
12655;DHT22;6392;44.644;11.448;2022-11-13T06:19:07;8.20;99.90
12655;DHT22;6392;44.644;11.448;2022-11-13T06:21:36;8.30;99.90
12655;DHT22;6392;44.644;11.448;2022-11-13T06:24:04;8.30;99.90
12655;DHT22;6392;44.644;11.448;2022-11-13T06:26:35;8.30;99.90
12655;DHT22;6392;44.644;11.448;2022-11-13T06:29:05;8.40;99.90
12655;DHT22;6392;44.644;11.448;2022-11-13T06:31:34;8.40;99.90
12655;DHT22;6392;44.644;11.448;2022-11-13T06:34:03;8.40;99.90
12655;DHT22;6392;44.644;11.448;2022-11-13T06:36:31;8.40;99.90
12655;DHT22;6392;44.644;11.448;2022-11-13T06:38:59;8.50;99.90
12655;DHT22;6392;44.644;11.448;2022-11-13T06:41:27;8.50;99.90
12655;DHT22;6392;44.644;11.448;2022-11-13T06:43:58;8.50;99.90
12655;DHT22;6392;44.644;11.448;2022-11-13T06:46:27;8.50;99.90
12655;DHT22;6392;44.644;11.448;2022-11-13T06:48:54;8.50;99.90
12655;DHT22;6392;44.644;11.448;2022-11-13T06:51:22;8.60;99.90
12655;DHT22;6392;44.644;11.448;2022-11-13T06:53:50;8.60;99.90
12655;DHT22;6392;44.644;11.448;2022-11-13T06:56:17;8.60;99.90
12655;DHT22;6392;44.644;11.448;2022-11-13T06:58:44;8.60;99.90
12655;DHT22;6392;44.644;11.448;2022-11-13T07:01:15;8.60;99.90
12655;DHT22;6392;44.644;11.448;2022-11-13T07:03:42;8.60;99.90
12655;DHT22;6392;44.644;11.448;2022-11-13T07:06:12;8.70;99.90
12655;DHT22;6392;44.644;11.448;2022-11-13T07:08:40;8.70;99.90
12655;DHT22;6392;44.644;11.448;2022-11-13T07:11:09;8.70;99.90
12655;DHT22;6392;44.644;11.448;2022-11-13T07:13:37;8.70;99.90
12655;DHT22;6392;44.644;11.448;2022-11-13T07:16:05;8.70;99.90
12655;DHT22;6392;44.644;11.448;2022-11-13T07:18:34;8.80;99.90
12655;DHT22;6392;44.644;11.448;2022-11-13T07:21:03;8.80;99.90
12655;DHT22;6392;44.644;11.448;2022-11-13T07:23:32;8.80;99.90
12655;DHT22;6392;44.644;11.448;2022-11-13T07:25:59;8.80;99.90
12655;DHT22;6392;44.644;11.448;2022-11-13T07:28:26;8.80;99.90
12655;DHT22;6392;44.644;11.448;2022-11-13T07:30:56;8.80;99.90
12655;DHT22;6392;44.644;11.448;2022-11-13T07:33:23;8.90;99.90
12655;DHT22;6392;44.644;11.448;2022-11-13T07:35:53;8.90;99.90
12655;DHT22;6392;44.644;11.448;2022-11-13T07:38:20;8.90;99.90
12655;DHT22;6392;44.644;11.448;2022-11-13T07:40:48;8.90;99.90
12655;DHT22;6392;44.644;11.448;2022-11-13T07:43:15;9.00;99.90
12655;DHT22;6392;44.644;11.448;2022-11-13T07:45:42;9.00;99.90
12655;DHT22;6392;44.644;11.448;2022-11-13T07:48:10;9.10;99.90
12655;DHT22;6392;44.644;11.448;2022-11-13T07:50:38;9.10;99.90
12655;DHT22;6392;44.644;11.448;2022-11-13T07:53:07;9.10;99.90
12655;DHT22;6392;44.644;11.448;2022-11-13T07:55:35;9.20;99.90
12655;DHT22;6392;44.644;11.448;2022-11-13T07:58:03;9.20;99.90
12655;DHT22;6392;44.644;11.448;2022-11-13T08:00:32;9.20;99.90
12655;DHT22;6392;44.644;11.448;2022-11-13T08:03:04;9.30;99.90
12655;DHT22;6392;44.644;11.448;2022-11-13T08:05:31;9.30;99.90
12655;DHT22;6392;44.644;11.448;2022-11-13T08:07:58;9.30;99.90
12655;DHT22;6392;44.644;11.448;2022-11-13T08:10:27;9.30;99.90
12655;DHT22;6392;44.644;11.448;2022-11-13T08:12:59;9.40;99.90
12655;DHT22;6392;44.644;11.448;2022-11-13T08:15:26;9.40;99.90
12655;DHT22;6392;44.644;11.448;2022-11-13T08:17:54;9.50;99.90
12655;DHT22;6392;44.644;11.448;2022-11-13T08:20:22;9.60;99.90
12655;DHT22;6392;44.644;11.448;2022-11-13T08:22:49;9.60;99.90
12655;DHT22;6392;44.644;11.448;2022-11-13T08:25:16;9.70;99.90
12655;DHT22;6392;44.644;11.448;2022-11-13T08:27:45;9.80;99.90
12655;DHT22;6392;44.644;11.448;2022-11-13T08:30:13;9.80;99.90
12655;DHT22;6392;44.644;11.448;2022-11-13T08:32:40;9.80;99.90
12655;DHT22;6392;44.644;11.448;2022-11-13T08:35:08;9.80;99.90
12655;DHT22;6392;44.644;11.448;2022-11-13T08:37:35;9.90;99.90
12655;DHT22;6392;44.644;11.448;2022-11-13T08:40:03;9.90;99.90
12655;DHT22;6392;44.644;11.448;2022-11-13T08:42:30;9.90;99.90
12655;DHT22;6392;44.644;11.448;2022-11-13T08:44:58;10.00;99.90
12655;DHT22;6392;44.644;11.448;2022-11-13T08:47:26;10.00;99.90
12655;DHT22;6392;44.644;11.448;2022-11-13T08:49:54;10.00;99.90
12655;DHT22;6392;44.644;11.448;2022-11-13T08:52:21;10.00;99.90
12655;DHT22;6392;44.644;11.448;2022-11-13T08:54:48;10.10;99.90
12655;DHT22;6392;44.644;11.448;2022-11-13T08:57:15;10.10;99.90
12655;DHT22;6392;44.644;11.448;2022-11-13T08:59:42;10.20;99.90
12655;DHT22;6392;44.644;11.448;2022-11-13T09:02:13;10.20;99.90
12655;DHT22;6392;44.644;11.448;2022-11-13T09:04:41;10.30;99.90
12655;DHT22;6392;44.644;11.448;2022-11-13T09:07:08;10.30;99.90
12655;DHT22;6392;44.644;11.448;2022-11-13T09:09:36;10.30;99.90
12655;DHT22;6392;44.644;11.448;2022-11-13T09:12:03;10.30;99.90
12655;DHT22;6392;44.644;11.448;2022-11-13T09:14:30;10.40;99.90
12655;DHT22;6392;44.644;11.448;2022-11-13T09:16:57;10.40;99.90
12655;DHT22;6392;44.644;11.448;2022-11-13T09:19:26;10.40;99.90
12655;DHT22;6392;44.644;11.448;2022-11-13T09:21:53;10.50;99.90
12655;DHT22;6392;44.644;11.448;2022-11-13T09:24:20;10.50;99.90
12655;DHT22;6392;44.644;11.448;2022-11-13T09:26:47;10.50;99.90
12655;DHT22;6392;44.644;11.448;2022-11-13T09:29:14;10.60;99.90
12655;DHT22;6392;44.644;11.448;2022-11-13T09:31:41;10.60;99.90
12655;DHT22;6392;44.644;11.448;2022-11-13T09:34:08;10.60;99.90
12655;DHT22;6392;44.644;11.448;2022-11-13T09:36:37;10.60;99.90
12655;DHT22;6392;44.644;11.448;2022-11-13T09:39:04;10.60;99.90
12655;DHT22;6392;44.644;11.448;2022-11-13T09:41:36;10.70;99.90
12655;DHT22;6392;44.644;11.448;2022-11-13T09:44:09;10.70;99.90
12655;DHT22;6392;44.644;11.448;2022-11-13T09:46:42;10.80;99.90
12655;DHT22;6392;44.644;11.448;2022-11-13T09:49:15;10.80;99.90
12655;DHT22;6392;44.644;11.448;2022-11-13T09:51:50;10.80;99.90
12655;DHT22;6392;44.644;11.448;2022-11-13T09:54:17;10.80;99.90
12655;DHT22;6392;44.644;11.448;2022-11-13T09:56:49;10.90;99.90
12655;DHT22;6392;44.644;11.448;2022-11-13T09:59:23;10.90;99.90
12655;DHT22;6392;44.644;11.448;2022-11-13T10:01:57;10.90;99.90
12655;DHT22;6392;44.644;11.448;2022-11-13T10:04:34;10.90;99.90
12655;DHT22;6392;44.644;11.448;2022-11-13T10:07:17;11.00;99.90
12655;DHT22;6392;44.644;11.448;2022-11-13T10:09:57;11.00;99.90
12655;DHT22;6392;44.644;11.448;2022-11-13T10:12:28;11.00;99.90
12655;DHT22;6392;44.644;11.448;2022-11-13T10:15:00;11.10;99.90
12655;DHT22;6392;44.644;11.448;2022-11-13T10:17:32;11.10;99.90
12655;DHT22;6392;44.644;11.448;2022-11-13T10:20:03;11.10;99.90
12655;DHT22;6392;44.644;11.448;2022-11-13T10:22:37;11.10;99.90
12655;DHT22;6392;44.644;11.448;2022-11-13T10:25:11;11.10;99.90
12655;DHT22;6392;44.644;11.448;2022-11-13T10:27:40;11.10;99.90
12655;DHT22;6392;44.644;11.448;2022-11-13T10:30:13;11.20;99.90
12655;DHT22;6392;44.644;11.448;2022-11-13T10:32:41;11.20;99.90
12655;DHT22;6392;44.644;11.448;2022-11-13T10:38:15;11.30;99.90
12655;DHT22;6392;44.644;11.448;2022-11-13T10:40:44;11.30;99.90
12655;DHT22;6392;44.644;11.448;2022-11-13T10:43:14;11.30;99.90
12655;DHT22;6392;44.644;11.448;2022-11-13T10:45:42;11.40;99.90
12655;DHT22;6392;44.644;11.448;2022-11-13T10:48:19;11.40;99.90
12655;DHT22;6392;44.644;11.448;2022-11-13T10:50:53;11.50;99.90
12655;DHT22;6392;44.644;11.448;2022-11-13T10:53:24;11.50;99.90
12655;DHT22;6392;44.644;11.448;2022-11-13T10:55:53;11.50;99.90
12655;DHT22;6392;44.644;11.448;2022-11-13T10:58:23;11.60;99.90
12655;DHT22;6392;44.644;11.448;2022-11-13T11:00:51;11.60;99.90
12655;DHT22;6392;44.644;11.448;2022-11-13T11:03:20;11.60;99.90
12655;DHT22;6392;44.644;11.448;2022-11-13T11:05:56;11.60;99.90
12655;DHT22;6392;44.644;11.448;2022-11-13T11:08:28;11.70;99.90
12655;DHT22;6392;44.644;11.448;2022-11-13T11:10:58;11.70;99.90
12655;DHT22;6392;44.644;11.448;2022-11-13T11:13:43;11.70;99.90
12655;DHT22;6392;44.644;11.448;2022-11-13T11:16:15;11.90;99.90
12655;DHT22;6392;44.644;11.448;2022-11-13T11:18:50;12.00;99.90
12655;DHT22;6392;44.644;11.448;2022-11-13T11:21:21;12.10;99.90
12655;DHT22;6392;44.644;11.448;2022-11-13T11:23:55;12.10;99.90
12655;DHT22;6392;44.644;11.448;2022-11-13T11:26:28;12.10;99.90
12655;DHT22;6392;44.644;11.448;2022-11-13T11:29:05;12.10;99.90
12655;DHT22;6392;44.644;11.448;2022-11-13T11:31:38;12.10;99.90
12655;DHT22;6392;44.644;11.448;2022-11-13T11:34:15;12.10;99.90
12655;DHT22;6392;44.644;11.448;2022-11-13T11:36:51;12.10;99.90
12655;DHT22;6392;44.644;11.448;2022-11-13T11:39:35;12.20;99.90
12655;DHT22;6392;44.644;11.448;2022-11-13T11:42:16;12.30;99.90
12655;DHT22;6392;44.644;11.448;2022-11-13T11:44:59;12.30;99.90
12655;DHT22;6392;44.644;11.448;2022-11-13T11:47:28;12.30;99.90
12655;DHT22;6392;44.644;11.448;2022-11-13T11:49:55;12.20;99.90
12655;DHT22;6392;44.644;11.448;2022-11-13T11:58:18;12.20;99.90
12655;DHT22;6392;44.644;11.448;2022-11-13T12:00:51;12.30;99.90
12655;DHT22;6392;44.644;11.448;2022-11-13T12:03:59;12.30;99.90
12655;DHT22;6392;44.644;11.448;2022-11-13T12:06:36;12.30;99.90
12655;DHT22;6392;44.644;11.448;2022-11-13T12:09:14;12.30;99.90
12655;DHT22;6392;44.644;11.448;2022-11-13T12:11:50;12.40;99.90
12655;DHT22;6392;44.644;11.448;2022-11-13T12:14:25;12.40;99.90
12655;DHT22;6392;44.644;11.448;2022-11-13T12:17:08;12.50;99.90
12655;DHT22;6392;44.644;11.448;2022-11-13T12:19:47;12.60;99.90
12655;DHT22;6392;44.644;11.448;2022-11-13T12:22:22;12.60;99.90
12655;DHT22;6392;44.644;11.448;2022-11-13T12:25:02;12.70;99.90
12655;DHT22;6392;44.644;11.448;2022-11-13T12:27:37;12.80;99.90
12655;DHT22;6392;44.644;11.448;2022-11-13T12:30:12;12.80;99.90
12655;DHT22;6392;44.644;11.448;2022-11-13T12:32:58;12.90;99.90
12655;DHT22;6392;44.644;11.448;2022-11-13T12:35:28;12.90;99.90
12655;DHT22;6392;44.644;11.448;2022-11-13T12:37:59;13.00;99.90
12655;DHT22;6392;44.644;11.448;2022-11-13T12:40:32;13.00;99.90
12655;DHT22;6392;44.644;11.448;2022-11-13T12:43:16;13.00;99.90
12655;DHT22;6392;44.644;11.448;2022-11-13T12:45:50;12.90;99.90
12655;DHT22;6392;44.644;11.448;2022-11-13T12:48:26;12.90;99.90
12655;DHT22;6392;44.644;11.448;2022-11-13T12:50:57;13.00;99.90
12655;DHT22;6392;44.644;11.448;2022-11-13T12:53:27;13.10;99.90
12655;DHT22;6392;44.644;11.448;2022-11-13T12:55:57;13.20;99.90
12655;DHT22;6392;44.644;11.448;2022-11-13T12:58:28;13.20;99.90
12655;DHT22;6392;44.644;11.448;2022-11-13T13:01:03;13.20;99.90
12655;DHT22;6392;44.644;11.448;2022-11-13T13:03:51;13.20;99.90
12655;DHT22;6392;44.644;11.448;2022-11-13T13:06:40;13.20;99.90
12655;DHT22;6392;44.644;11.448;2022-11-13T13:09:18;13.20;99.90
12655;DHT22;6392;44.644;11.448;2022-11-13T13:11:53;13.10;99.90
12655;DHT22;6392;44.644;11.448;2022-11-13T13:14:49;13.10;99.90
12655;DHT22;6392;44.644;11.448;2022-11-13T13:17:20;13.20;99.90
12655;DHT22;6392;44.644;11.448;2022-11-13T13:19:57;13.20;99.90
12655;DHT22;6392;44.644;11.448;2022-11-13T13:22:26;13.20;99.90
12655;DHT22;6392;44.644;11.448;2022-11-13T13:25:01;13.20;99.90
12655;DHT22;6392;44.644;11.448;2022-11-13T13:27:33;13.20;99.90
12655;DHT22;6392;44.644;11.448;2022-11-13T13:30:15;13.20;99.90
12655;DHT22;6392;44.644;11.448;2022-11-13T13:32:51;13.30;99.90
12655;DHT22;6392;44.644;11.448;2022-11-13T13:35:21;13.30;99.90
12655;DHT22;6392;44.644;11.448;2022-11-13T13:37:55;13.40;99.90
12655;DHT22;6392;44.644;11.448;2022-11-13T13:40:32;13.50;99.90
12655;DHT22;6392;44.644;11.448;2022-11-13T13:43:14;13.50;99.90
12655;DHT22;6392;44.644;11.448;2022-11-13T13:45:52;13.60;99.90
12655;DHT22;6392;44.644;11.448;2022-11-13T13:48:24;13.60;99.90
12655;DHT22;6392;44.644;11.448;2022-11-13T13:50:55;13.70;99.90
12655;DHT22;6392;44.644;11.448;2022-11-13T13:53:25;13.70;99.90
12655;DHT22;6392;44.644;11.448;2022-11-13T13:55:55;13.60;99.90
12655;DHT22;6392;44.644;11.448;2022-11-13T13:58:25;13.60;99.90
12655;DHT22;6392;44.644;11.448;2022-11-13T14:00:56;13.50;99.90
12655;DHT22;6392;44.644;11.448;2022-11-13T14:03:24;13.50;99.90
12655;DHT22;6392;44.644;11.448;2022-11-13T14:05:54;13.50;99.90
12655;DHT22;6392;44.644;11.448;2022-11-13T14:08:23;13.50;99.90
12655;DHT22;6392;44.644;11.448;2022-11-13T14:10:52;13.40;99.90
12655;DHT22;6392;44.644;11.448;2022-11-13T14:13:23;13.40;99.90
12655;DHT22;6392;44.644;11.448;2022-11-13T14:16:01;13.30;99.90
12655;DHT22;6392;44.644;11.448;2022-11-13T14:18:29;13.30;99.90
12655;DHT22;6392;44.644;11.448;2022-11-13T14:20:58;13.20;99.90
12655;DHT22;6392;44.644;11.448;2022-11-13T14:23:29;13.20;99.90
12655;DHT22;6392;44.644;11.448;2022-11-13T14:25:58;13.20;99.90
12655;DHT22;6392;44.644;11.448;2022-11-13T14:28:27;13.20;99.90
12655;DHT22;6392;44.644;11.448;2022-11-13T14:30:57;13.20;99.90
12655;DHT22;6392;44.644;11.448;2022-11-13T14:33:30;13.20;99.90
12655;DHT22;6392;44.644;11.448;2022-11-13T14:35:58;13.30;99.90
12655;DHT22;6392;44.644;11.448;2022-11-13T14:38:29;13.30;99.90
12655;DHT22;6392;44.644;11.448;2022-11-13T14:40:57;13.30;99.90
12655;DHT22;6392;44.644;11.448;2022-11-13T14:43:26;13.40;99.90
12655;DHT22;6392;44.644;11.448;2022-11-13T14:45:56;13.40;99.90
12655;DHT22;6392;44.644;11.448;2022-11-13T14:48:26;13.40;99.90
12655;DHT22;6392;44.644;11.448;2022-11-13T14:50:56;13.40;99.90
12655;DHT22;6392;44.644;11.448;2022-11-13T14:53:29;13.50;99.90
12655;DHT22;6392;44.644;11.448;2022-11-13T14:55:58;13.50;99.90
12655;DHT22;6392;44.644;11.448;2022-11-13T14:58:30;13.50;99.90
12655;DHT22;6392;44.644;11.448;2022-11-13T15:00:58;13.50;99.90
12655;DHT22;6392;44.644;11.448;2022-11-13T15:03:27;13.50;99.90
12655;DHT22;6392;44.644;11.448;2022-11-13T15:05:54;13.50;99.90
12655;DHT22;6392;44.644;11.448;2022-11-13T15:08:21;13.50;99.90
12655;DHT22;6392;44.644;11.448;2022-11-13T15:10:49;13.50;99.90
12655;DHT22;6392;44.644;11.448;2022-11-13T15:13:17;13.40;99.90
12655;DHT22;6392;44.644;11.448;2022-11-13T15:15:44;13.40;99.90
12655;DHT22;6392;44.644;11.448;2022-11-13T15:18:15;13.40;99.90
12655;DHT22;6392;44.644;11.448;2022-11-13T15:20:45;13.40;99.90
12655;DHT22;6392;44.644;11.448;2022-11-13T15:23:13;13.30;99.90
12655;DHT22;6392;44.644;11.448;2022-11-13T15:25:42;13.30;99.90
12655;DHT22;6392;44.644;11.448;2022-11-13T15:28:09;13.20;99.90
12655;DHT22;6392;44.644;11.448;2022-11-13T15:30:36;13.20;99.90
12655;DHT22;6392;44.644;11.448;2022-11-13T15:33:11;13.20;99.90
12655;DHT22;6392;44.644;11.448;2022-11-13T15:35:41;13.20;99.90
12655;DHT22;6392;44.644;11.448;2022-11-13T15:38:12;13.10;99.90
12655;DHT22;6392;44.644;11.448;2022-11-13T15:40:40;13.10;99.90
12655;DHT22;6392;44.644;11.448;2022-11-13T15:43:15;13.10;99.90
12655;DHT22;6392;44.644;11.448;2022-11-13T15:45:46;13.10;99.90
12655;DHT22;6392;44.644;11.448;2022-11-13T15:48:17;13.00;99.90
12655;DHT22;6392;44.644;11.448;2022-11-13T15:50:46;13.00;99.90
12655;DHT22;6392;44.644;11.448;2022-11-13T15:53:20;13.00;99.90
12655;DHT22;6392;44.644;11.448;2022-11-13T15:55:49;12.90;99.90
12655;DHT22;6392;44.644;11.448;2022-11-13T15:58:17;12.90;99.90
12655;DHT22;6392;44.644;11.448;2022-11-13T16:00:46;12.90;99.90
12655;DHT22;6392;44.644;11.448;2022-11-13T16:03:14;12.90;99.90
12655;DHT22;6392;44.644;11.448;2022-11-13T16:05:44;12.80;99.90